sensor_id;sensor_type;location;lat;lon;timestamp;pressure;altitude;pressure_sealevel;temperature;humidity
49709;BME280;35601;55.902;13.606;2023-03-25T00:02:23;98902.73;;;3.52;81.58
49709;BME280;35601;55.902;13.606;2023-03-25T00:04:50;98904.15;;;3.24;81.95
49709;BME280;35601;55.902;13.606;2023-03-25T00:07:14;98892.09;;;3.24;82.11
49709;BME280;35601;55.902;13.606;2023-03-25T00:09:39;98894.48;;;3.49;82.39
49709;BME280;35601;55.902;13.606;2023-03-25T00:12:05;98889.32;;;3.55;82.17
49709;BME280;35601;55.902;13.606;2023-03-25T00:14:30;98888.72;;;3.68;81.72
49709;BME280;35601;55.902;13.606;2023-03-25T00:16:55;98891.23;;;3.60;81.27
49709;BME280;35601;55.902;13.606;2023-03-25T00:19:21;98884.45;;;3.76;80.55
49709;BME280;35601;55.902;13.606;2023-03-25T00:21:46;98881.66;;;3.67;80.18
49709;BME280;35601;55.902;13.606;2023-03-25T00:24:12;98878.70;;;4.13;79.92
49709;BME280;35601;55.902;13.606;2023-03-25T00:26:37;98884.13;;;3.41;80.93
49709;BME280;35601;55.902;13.606;2023-03-25T00:29:02;98884.19;;;3.48;81.80
49709;BME280;35601;55.902;13.606;2023-03-25T00:31:29;98881.44;;;3.74;82.02
49709;BME280;35601;55.902;13.606;2023-03-25T00:33:53;98879.89;;;3.46;82.41
49709;BME280;35601;55.902;13.606;2023-03-25T00:36:19;98882.83;;;3.74;82.45
49709;BME280;35601;55.902;13.606;2023-03-25T00:38:48;98881.87;;;3.33;82.19
49709;BME280;35601;55.902;13.606;2023-03-25T00:41:12;98882.44;;;3.67;82.05
49709;BME280;35601;55.902;13.606;2023-03-25T00:43:35;98877.08;;;3.75;81.86
49709;BME280;35601;55.902;13.606;2023-03-25T00:46:01;98871.44;;;3.91;82.03
49709;BME280;35601;55.902;13.606;2023-03-25T00:48:26;98870.48;;;3.48;81.76
49709;BME280;35601;55.902;13.606;2023-03-25T00:50:52;98872.29;;;3.67;81.97
49709;BME280;35601;55.902;13.606;2023-03-25T00:53:17;98870.78;;;3.71;82.72
49709;BME280;35601;55.902;13.606;2023-03-25T00:55:43;98870.52;;;3.62;83.40
49709;BME280;35601;55.902;13.606;2023-03-25T00:58:09;98867.89;;;3.50;83.93
49709;BME280;35601;55.902;13.606;2023-03-25T01:00:34;98868.21;;;3.51;83.91
49709;BME280;35601;55.902;13.606;2023-03-25T01:02:59;98867.29;;;3.65;83.63
49709;BME280;35601;55.902;13.606;2023-03-25T01:05:24;98862.59;;;3.58;83.65
49709;BME280;35601;55.902;13.606;2023-03-25T01:07:50;98865.33;;;3.66;83.29
49709;BME280;35601;55.902;13.606;2023-03-25T01:10:16;98868.17;;;3.70;82.91
49709;BME280;35601;55.902;13.606;2023-03-25T01:12:41;98865.27;;;3.68;83.00
49709;BME280;35601;55.902;13.606;2023-03-25T01:15:09;98862.23;;;3.54;83.23
49709;BME280;35601;55.902;13.606;2023-03-25T01:17:32;98860.46;;;3.50;83.49
49709;BME280;35601;55.902;13.606;2023-03-25T01:19:58;98863.04;;;3.28;83.36
49709;BME280;35601;55.902;13.606;2023-03-25T01:22:23;98860.75;;;3.42;83.54
49709;BME280;35601;55.902;13.606;2023-03-25T01:24:49;98852.19;;;3.41;83.72
49709;BME280;35601;55.902;13.606;2023-03-25T01:27:14;98852.55;;;3.18;84.00
49709;BME280;35601;55.902;13.606;2023-03-25T01:29:40;98850.31;;;3.58;83.32
49709;BME280;35601;55.902;13.606;2023-03-25T01:32:06;98845.47;;;3.43;83.82
49709;BME280;35601;55.902;13.606;2023-03-25T01:34:31;98842.68;;;3.69;84.47
49709;BME280;35601;55.902;13.606;2023-03-25T01:36:56;98835.34;;;3.46;84.84
49709;BME280;35601;55.902;13.606;2023-03-25T01:39:22;98834.52;;;3.43;85.20
49709;BME280;35601;55.902;13.606;2023-03-25T01:41:49;98828.43;;;3.32;85.70
49709;BME280;35601;55.902;13.606;2023-03-25T01:46:40;98818.35;;;3.06;86.26
49709;BME280;35601;55.902;13.606;2023-03-25T01:49:08;98814.67;;;3.21;86.39
49709;BME280;35601;55.902;13.606;2023-03-25T01:51:32;98811.41;;;3.34;86.52
49709;BME280;35601;55.902;13.606;2023-03-25T01:53:55;98806.24;;;3.08;86.30
49709;BME280;35601;55.902;13.606;2023-03-25T01:56:24;98802.23;;;3.05;86.45
49709;BME280;35601;55.902;13.606;2023-03-25T01:58:46;98798.92;;;2.97;85.97
49709;BME280;35601;55.902;13.606;2023-03-25T02:01:12;98802.26;;;3.03;85.91
49709;BME280;35601;55.902;13.606;2023-03-25T02:03:37;98795.93;;;2.90;85.76
49709;BME280;35601;55.902;13.606;2023-03-25T02:06:06;98798.10;;;2.82;86.06
49709;BME280;35601;55.902;13.606;2023-03-25T02:08:29;98798.04;;;2.92;85.53
49709;BME280;35601;55.902;13.606;2023-03-25T02:10:54;98799.50;;;2.82;85.71
49709;BME280;35601;55.902;13.606;2023-03-25T02:13:19;98796.57;;;3.14;85.17
49709;BME280;35601;55.902;13.606;2023-03-25T02:16:00;98796.81;;;2.74;85.94
49709;BME280;35601;55.902;13.606;2023-03-25T02:18:21;98795.65;;;2.81;86.55
49709;BME280;35601;55.902;13.606;2023-03-25T02:23:15;98796.31;;;3.07;85.61
49709;BME280;35601;55.902;13.606;2023-03-25T02:25:35;98794.93;;;2.92;85.00
49709;BME280;35601;55.902;13.606;2023-03-25T02:27:58;98792.80;;;3.02;84.47
49709;BME280;35601;55.902;13.606;2023-03-25T02:30:28;98790.45;;;2.84;84.64
49709;BME280;35601;55.902;13.606;2023-03-25T02:32:55;98790.88;;;2.83;84.58
49709;BME280;35601;55.902;13.606;2023-03-25T02:35:20;98794.23;;;2.97;84.61
49709;BME280;35601;55.902;13.606;2023-03-25T02:40:02;98793.17;;;2.85;84.51
49709;BME280;35601;55.902;13.606;2023-03-25T02:42:25;98794.00;;;2.60;84.80
49709;BME280;35601;55.902;13.606;2023-03-25T02:44:53;98797.30;;;2.48;85.88
49709;BME280;35601;55.902;13.606;2023-03-25T02:47:16;98797.49;;;2.42;85.89
49709;BME280;35601;55.902;13.606;2023-03-25T02:49:41;98801.56;;;2.55;86.91
49709;BME280;35601;55.902;13.606;2023-03-25T02:52:07;98801.63;;;2.74;87.89
49709;BME280;35601;55.902;13.606;2023-03-25T02:54:31;98796.59;;;2.66;88.51
49709;BME280;35601;55.902;13.606;2023-03-25T02:56:54;98798.25;;;2.32;90.37
49709;BME280;35601;55.902;13.606;2023-03-25T02:59:20;98795.87;;;2.15;90.50
49709;BME280;35601;55.902;13.606;2023-03-25T03:01:46;98794.20;;;2.51;90.03
49709;BME280;35601;55.902;13.606;2023-03-25T03:04:11;98795.52;;;2.70;90.31
49709;BME280;35601;55.902;13.606;2023-03-25T03:06:39;98796.84;;;2.45;90.94
49709;BME280;35601;55.902;13.606;2023-03-25T03:09:19;98794.63;;;2.61;91.00
49709;BME280;35601;55.902;13.606;2023-03-25T03:11:32;98791.88;;;2.51;91.89
49709;BME280;35601;55.902;13.606;2023-03-25T03:14:05;98791.61;;;2.53;92.88
49709;BME280;35601;55.902;13.606;2023-03-25T03:16:27;98787.00;;;2.14;94.02
49709;BME280;35601;55.902;13.606;2023-03-25T03:18:51;98786.58;;;2.45;94.13
49709;BME280;35601;55.902;13.606;2023-03-25T03:21:13;98784.87;;;2.35;94.49
49709;BME280;35601;55.902;13.606;2023-03-25T03:23:42;98790.23;;;2.38;94.59
49709;BME280;35601;55.902;13.606;2023-03-25T03:26:07;98787.32;;;2.42;94.95
49709;BME280;35601;55.902;13.606;2023-03-25T03:28:32;98789.18;;;2.23;94.57
49709;BME280;35601;55.902;13.606;2023-03-25T03:30:57;98792.39;;;2.50;94.82
49709;BME280;35601;55.902;13.606;2023-03-25T03:33:20;98791.91;;;2.62;93.61
49709;BME280;35601;55.902;13.606;2023-03-25T03:35:45;98789.68;;;2.47;94.23
49709;BME280;35601;55.902;13.606;2023-03-25T03:38:14;98786.42;;;2.24;95.08
49709;BME280;35601;55.902;13.606;2023-03-25T03:40:38;98784.65;;;2.57;95.20
49709;BME280;35601;55.902;13.606;2023-03-25T03:43:02;98786.73;;;2.26;93.71
49709;BME280;35601;55.902;13.606;2023-03-25T03:45:30;98786.82;;;2.31;93.12
49709;BME280;35601;55.902;13.606;2023-03-25T03:47:54;98784.93;;;2.41;93.47
49709;BME280;35601;55.902;13.606;2023-03-25T03:50:19;98781.33;;;2.49;93.42
49709;BME280;35601;55.902;13.606;2023-03-25T03:52:45;98779.75;;;2.53;93.13
49709;BME280;35601;55.902;13.606;2023-03-25T03:55:11;98777.52;;;2.76;92.65
49709;BME280;35601;55.902;13.606;2023-03-25T03:57:34;98777.01;;;2.27;92.58
49709;BME280;35601;55.902;13.606;2023-03-25T04:00:00;98774.63;;;2.42;92.47
49709;BME280;35601;55.902;13.606;2023-03-25T04:02:28;98777.45;;;2.31;94.35
49709;BME280;35601;55.902;13.606;2023-03-25T04:04:48;98773.21;;;1.92;95.14
49709;BME280;35601;55.902;13.606;2023-03-25T04:07:17;98771.61;;;1.95;96.27
49709;BME280;35601;55.902;13.606;2023-03-25T04:09:48;98773.97;;;2.39;97.12
49709;BME280;35601;55.902;13.606;2023-03-25T04:12:10;98777.10;;;1.86;98.91
49709;BME280;35601;55.902;13.606;2023-03-25T04:14:30;98774.52;;;1.90;99.79
49709;BME280;35601;55.902;13.606;2023-03-25T04:16:57;98769.72;;;2.21;100.00
49709;BME280;35601;55.902;13.606;2023-03-25T04:19:21;98771.48;;;1.67;100.00
49709;BME280;35601;55.902;13.606;2023-03-25T04:21:48;98777.67;;;2.08;99.65
49709;BME280;35601;55.902;13.606;2023-03-25T04:24:13;98778.60;;;2.12;99.48
49709;BME280;35601;55.902;13.606;2023-03-25T04:26:38;98784.40;;;2.16;99.55
49709;BME280;35601;55.902;13.606;2023-03-25T04:29:04;98789.15;;;2.09;99.06
49709;BME280;35601;55.902;13.606;2023-03-25T04:31:30;98788.48;;;2.03;100.00
49709;BME280;35601;55.902;13.606;2023-03-25T04:33:57;98787.92;;;2.16;100.00
49709;BME280;35601;55.902;13.606;2023-03-25T04:36:20;98784.75;;;1.72;100.00
49709;BME280;35601;55.902;13.606;2023-03-25T04:38:47;98784.81;;;1.98;100.00
49709;BME280;35601;55.902;13.606;2023-03-25T04:41:12;98780.26;;;2.26;100.00
49709;BME280;35601;55.902;13.606;2023-03-25T04:43:37;98781.39;;;2.06;100.00
49709;BME280;35601;55.902;13.606;2023-03-25T04:46:04;98779.25;;;2.23;100.00
49709;BME280;35601;55.902;13.606;2023-03-25T04:48:30;98775.50;;;2.26;100.00
49709;BME280;35601;55.902;13.606;2023-03-25T04:50:54;98775.02;;;2.15;100.00
49709;BME280;35601;55.902;13.606;2023-03-25T04:53:21;98767.54;;;2.10;100.00
49709;BME280;35601;55.902;13.606;2023-03-25T04:55:45;98768.56;;;2.23;100.00
49709;BME280;35601;55.902;13.606;2023-03-25T04:58:11;98768.35;;;2.33;100.00
49709;BME280;35601;55.902;13.606;2023-03-25T05:00:36;98762.69;;;2.39;100.00
49709;BME280;35601;55.902;13.606;2023-03-25T05:03:01;98764.32;;;2.51;100.00
49709;BME280;35601;55.902;13.606;2023-03-25T05:05:26;98759.75;;;2.77;100.00
49709;BME280;35601;55.902;13.606;2023-03-25T05:07:53;98762.33;;;2.59;100.00
49709;BME280;35601;55.902;13.606;2023-03-25T05:10:19;98760.39;;;2.71;100.00
49709;BME280;35601;55.902;13.606;2023-03-25T05:12:43;98761.40;;;2.65;100.00
49709;BME280;35601;55.902;13.606;2023-03-25T05:15:11;98764.09;;;2.67;100.00
49709;BME280;35601;55.902;13.606;2023-03-25T05:17:35;98760.10;;;2.21;99.53
49709;BME280;35601;55.902;13.606;2023-03-25T05:19:59;98755.37;;;2.75;99.13
49709;BME280;35601;55.902;13.606;2023-03-25T05:22:25;98754.44;;;2.58;99.49
49709;BME280;35601;55.902;13.606;2023-03-25T05:24:50;98752.90;;;2.37;100.00
49709;BME280;35601;55.902;13.606;2023-03-25T05:27:16;98753.94;;;2.48;100.00
49709;BME280;35601;55.902;13.606;2023-03-25T05:29:41;98752.11;;;2.47;100.00
49709;BME280;35601;55.902;13.606;2023-03-25T05:32:06;98751.10;;;2.68;100.00
49709;BME280;35601;55.902;13.606;2023-03-25T05:34:32;98749.87;;;2.85;100.00
49709;BME280;35601;55.902;13.606;2023-03-25T05:36:57;98748.14;;;2.91;100.00
49709;BME280;35601;55.902;13.606;2023-03-25T05:39:22;98746.59;;;2.71;100.00
49709;BME280;35601;55.902;13.606;2023-03-25T05:41:48;98749.64;;;2.72;100.00
49709;BME280;35601;55.902;13.606;2023-03-25T05:44:13;98749.15;;;2.21;100.00
49709;BME280;35601;55.902;13.606;2023-03-25T05:46:38;98752.29;;;2.87;100.00
49709;BME280;35601;55.902;13.606;2023-03-25T05:49:03;98751.08;;;3.01;99.37
49709;BME280;35601;55.902;13.606;2023-03-25T05:51:32;98753.48;;;2.86;98.93
49709;BME280;35601;55.902;13.606;2023-03-25T05:53:55;98752.21;;;2.78;100.00
49709;BME280;35601;55.902;13.606;2023-03-25T05:56:21;98757.27;;;2.80;100.00
49709;BME280;35601;55.902;13.606;2023-03-25T05:58:48;98752.59;;;2.63;100.00
49709;BME280;35601;55.902;13.606;2023-03-25T06:01:12;98757.96;;;2.83;100.00
49709;BME280;35601;55.902;13.606;2023-03-25T06:03:37;98753.49;;;2.71;100.00
49709;BME280;35601;55.902;13.606;2023-03-25T06:06:03;98753.00;;;2.73;100.00
49709;BME280;35601;55.902;13.606;2023-03-25T06:08:28;98752.10;;;2.73;100.00
49709;BME280;35601;55.902;13.606;2023-03-25T06:10:54;98754.14;;;2.71;100.00
49709;BME280;35601;55.902;13.606;2023-03-25T06:13:19;98752.58;;;2.63;100.00
49709;BME280;35601;55.902;13.606;2023-03-25T06:15:44;98752.12;;;3.01;100.00
49709;BME280;35601;55.902;13.606;2023-03-25T06:18:09;98754.52;;;2.79;100.00
49709;BME280;35601;55.902;13.606;2023-03-25T06:20:35;98746.74;;;3.22;100.00
49709;BME280;35601;55.902;13.606;2023-03-25T06:23:00;98746.11;;;3.03;100.00
49709;BME280;35601;55.902;13.606;2023-03-25T06:25:25;98749.01;;;2.98;100.00
49709;BME280;35601;55.902;13.606;2023-03-25T06:27:51;98749.58;;;2.81;100.00
49709;BME280;35601;55.902;13.606;2023-03-25T06:30:18;98747.57;;;2.70;100.00
49709;BME280;35601;55.902;13.606;2023-03-25T06:32:42;98749.81;;;3.12;100.00
49709;BME280;35601;55.902;13.606;2023-03-25T06:35:10;98750.11;;;3.35;100.00
49709;BME280;35601;55.902;13.606;2023-03-25T06:37:33;98745.02;;;3.45;99.45
49709;BME280;35601;55.902;13.606;2023-03-25T06:39:58;98742.92;;;3.47;99.57
49709;BME280;35601;55.902;13.606;2023-03-25T06:42:24;98738.57;;;3.42;99.23
49709;BME280;35601;55.902;13.606;2023-03-25T06:44:49;98744.84;;;3.47;99.23
49709;BME280;35601;55.902;13.606;2023-03-25T06:47:16;98748.82;;;3.70;99.17
49709;BME280;35601;55.902;13.606;2023-03-25T06:49:40;98749.71;;;3.88;97.76
49709;BME280;35601;55.902;13.606;2023-03-25T06:52:06;98748.42;;;3.85;96.69
49709;BME280;35601;55.902;13.606;2023-03-25T06:54:30;98746.76;;;3.85;96.21
49709;BME280;35601;55.902;13.606;2023-03-25T06:56:57;98744.92;;;3.78;95.89
49709;BME280;35601;55.902;13.606;2023-03-25T06:59:22;98745.62;;;4.00;94.86
49709;BME280;35601;55.902;13.606;2023-03-25T07:01:47;98746.78;;;3.56;96.23
49709;BME280;35601;55.902;13.606;2023-03-25T07:04:13;98744.00;;;4.04;95.57
49709;BME280;35601;55.902;13.606;2023-03-25T07:06:38;98745.64;;;3.69;95.92
49709;BME280;35601;55.902;13.606;2023-03-25T07:09:04;98746.83;;;3.84;96.52
49709;BME280;35601;55.902;13.606;2023-03-25T07:11:30;98744.22;;;3.81;96.53
49709;BME280;35601;55.902;13.606;2023-03-25T07:13:55;98744.29;;;3.67;96.60
49709;BME280;35601;55.902;13.606;2023-03-25T07:16:22;98739.51;;;3.54;96.42
49709;BME280;35601;55.902;13.606;2023-03-25T07:18:46;98744.22;;;3.86;97.29
49709;BME280;35601;55.902;13.606;2023-03-25T07:21:13;98745.06;;;3.76;97.42
49709;BME280;35601;55.902;13.606;2023-03-25T07:23:38;98746.04;;;3.84;97.22
49709;BME280;35601;55.902;13.606;2023-03-25T07:26:03;98750.23;;;3.52;97.29
49709;BME280;35601;55.902;13.606;2023-03-25T07:28:29;98750.99;;;3.70;97.26
49709;BME280;35601;55.902;13.606;2023-03-25T07:30:53;98752.54;;;3.92;96.93
49709;BME280;35601;55.902;13.606;2023-03-25T07:33:18;98749.07;;;3.62;97.02
49709;BME280;35601;55.902;13.606;2023-03-25T07:35:44;98749.32;;;3.47;98.00
49709;BME280;35601;55.902;13.606;2023-03-25T07:38:10;98749.23;;;3.87;97.68
49709;BME280;35601;55.902;13.606;2023-03-25T07:40:36;98752.90;;;4.14;96.61
49709;BME280;35601;55.902;13.606;2023-03-25T07:43:04;98751.39;;;4.04;95.92
49709;BME280;35601;55.902;13.606;2023-03-25T07:45:26;98745.26;;;3.93;95.20
49709;BME280;35601;55.902;13.606;2023-03-25T07:47:52;98750.55;;;4.23;95.19
49709;BME280;35601;55.902;13.606;2023-03-25T07:50:18;98755.33;;;4.00;94.98
49709;BME280;35601;55.902;13.606;2023-03-25T07:52:43;98752.48;;;4.17;93.92
49709;BME280;35601;55.902;13.606;2023-03-25T07:55:09;98750.79;;;3.99;93.67
49709;BME280;35601;55.902;13.606;2023-03-25T07:57:34;98750.97;;;3.86;93.59
49709;BME280;35601;55.902;13.606;2023-03-25T07:59:59;98756.75;;;4.05;93.76
49709;BME280;35601;55.902;13.606;2023-03-25T08:02:25;98752.69;;;4.14;93.53
49709;BME280;35601;55.902;13.606;2023-03-25T08:04:50;98752.45;;;4.18;93.56
49709;BME280;35601;55.902;13.606;2023-03-25T08:07:16;98760.20;;;3.76;94.01
49709;BME280;35601;55.902;13.606;2023-03-25T08:09:41;98755.22;;;4.12;94.52
49709;BME280;35601;55.902;13.606;2023-03-25T08:12:07;98754.82;;;4.29;94.16
49709;BME280;35601;55.902;13.606;2023-03-25T08:14:32;98757.42;;;4.23;94.32
49709;BME280;35601;55.902;13.606;2023-03-25T08:16:59;98759.31;;;4.25;94.39
49709;BME280;35601;55.902;13.606;2023-03-25T08:19:24;98759.25;;;4.13;94.00
49709;BME280;35601;55.902;13.606;2023-03-25T08:21:48;98759.44;;;4.34;93.34
49709;BME280;35601;55.902;13.606;2023-03-25T08:24:13;98759.63;;;4.47;94.00
49709;BME280;35601;55.902;13.606;2023-03-25T08:26:40;98760.62;;;4.49;93.57
49709;BME280;35601;55.902;13.606;2023-03-25T08:29:04;98762.55;;;4.43;93.38
49709;BME280;35601;55.902;13.606;2023-03-25T08:31:31;98760.75;;;4.68;92.98
49709;BME280;35601;55.902;13.606;2023-03-25T08:33:55;98762.15;;;4.67;93.11
49709;BME280;35601;55.902;13.606;2023-03-25T08:36:22;98760.52;;;4.67;93.42
49709;BME280;35601;55.902;13.606;2023-03-25T08:38:46;98761.16;;;4.53;93.17
49709;BME280;35601;55.902;13.606;2023-03-25T08:41:11;98760.16;;;4.56;93.11
49709;BME280;35601;55.902;13.606;2023-03-25T08:43:36;98759.83;;;4.49;93.28
49709;BME280;35601;55.902;13.606;2023-03-25T08:46:02;98760.56;;;4.81;93.15
49709;BME280;35601;55.902;13.606;2023-03-25T08:48:28;98760.59;;;4.76;93.41
49709;BME280;35601;55.902;13.606;2023-03-25T08:50:53;98761.12;;;4.51;93.72
49709;BME280;35601;55.902;13.606;2023-03-25T08:53:18;98759.54;;;4.90;93.12
49709;BME280;35601;55.902;13.606;2023-03-25T08:55:44;98758.57;;;4.85;93.60
49709;BME280;35601;55.902;13.606;2023-03-25T08:58:09;98762.02;;;4.74;93.59
49709;BME280;35601;55.902;13.606;2023-03-25T09:00:36;98759.85;;;4.48;93.64
49709;BME280;35601;55.902;13.606;2023-03-25T09:03:01;98757.21;;;4.97;93.41
49709;BME280;35601;55.902;13.606;2023-03-25T09:05:27;98759.56;;;5.01;92.93
49709;BME280;35601;55.902;13.606;2023-03-25T09:07:52;98758.32;;;4.77;92.87
49709;BME280;35601;55.902;13.606;2023-03-25T09:10:17;98763.81;;;4.95;92.07
49709;BME280;35601;55.902;13.606;2023-03-25T09:12:43;98764.01;;;4.92;91.47
49709;BME280;35601;55.902;13.606;2023-03-25T09:15:10;98760.95;;;5.12;90.66
49709;BME280;35601;55.902;13.606;2023-03-25T09:17:34;98764.86;;;5.18;90.59
49709;BME280;35601;55.902;13.606;2023-03-25T09:20:00;98767.88;;;5.34;90.19
49709;BME280;35601;55.902;13.606;2023-03-25T09:22:26;98768.97;;;5.47;89.64
49709;BME280;35601;55.902;13.606;2023-03-25T09:24:52;98768.66;;;5.32;89.31
49709;BME280;35601;55.902;13.606;2023-03-25T09:27:17;98766.37;;;5.34;89.07
49709;BME280;35601;55.902;13.606;2023-03-25T09:29:43;98765.87;;;5.47;89.15
49709;BME280;35601;55.902;13.606;2023-03-25T09:32:08;98763.78;;;5.84;88.07
49709;BME280;35601;55.902;13.606;2023-03-25T09:34:33;98764.11;;;5.93;87.50
49709;BME280;35601;55.902;13.606;2023-03-25T09:36:59;98766.99;;;5.88;86.48
49709;BME280;35601;55.902;13.606;2023-03-25T09:39:25;98767.35;;;5.70;87.30
49709;BME280;35601;55.902;13.606;2023-03-25T09:42:02;98768.32;;;5.40;87.91
49709;BME280;35601;55.902;13.606;2023-03-25T09:44:21;98771.24;;;5.16;88.85
49709;BME280;35601;55.902;13.606;2023-03-25T09:46:42;98771.22;;;5.57;88.79
49709;BME280;35601;55.902;13.606;2023-03-25T09:49:13;98772.49;;;5.34;89.29
49709;BME280;35601;55.902;13.606;2023-03-25T09:51:35;98776.12;;;5.21;90.02
49709;BME280;35601;55.902;13.606;2023-03-25T09:54:02;98774.64;;;4.99;91.40
49709;BME280;35601;55.902;13.606;2023-03-25T09:56:26;98774.74;;;5.30;90.75
49709;BME280;35601;55.902;13.606;2023-03-25T09:58:52;98781.95;;;4.86;91.72
49709;BME280;35601;55.902;13.606;2023-03-25T10:01:22;98780.25;;;5.31;90.06
49709;BME280;35601;55.902;13.606;2023-03-25T10:03:50;98784.14;;;5.30;90.24
49709;BME280;35601;55.902;13.606;2023-03-25T10:06:12;98785.13;;;5.56;89.58
49709;BME280;35601;55.902;13.606;2023-03-25T10:08:43;98781.74;;;5.79;88.93
49709;BME280;35601;55.902;13.606;2023-03-25T10:11:04;98785.26;;;5.70;88.70
49709;BME280;35601;55.902;13.606;2023-03-25T10:13:30;98787.23;;;5.79;88.77
49709;BME280;35601;55.902;13.606;2023-03-25T10:15:52;98790.36;;;5.65;88.93
49709;BME280;35601;55.902;13.606;2023-03-25T10:18:27;98790.05;;;5.62;88.74
49709;BME280;35601;55.902;13.606;2023-03-25T10:20:46;98788.89;;;5.38;89.89
49709;BME280;35601;55.902;13.606;2023-03-25T10:23:12;98788.28;;;5.30;90.56
49709;BME280;35601;55.902;13.606;2023-03-25T10:25:35;98787.94;;;5.34;90.21
49709;BME280;35601;55.902;13.606;2023-03-25T10:27:56;98790.52;;;5.45;90.33
49709;BME280;35601;55.902;13.606;2023-03-25T10:30:22;98785.12;;;5.42;89.86
49709;BME280;35601;55.902;13.606;2023-03-25T10:32:50;98783.05;;;5.70;90.27
49709;BME280;35601;55.902;13.606;2023-03-25T10:35:15;98783.17;;;5.68;88.41
49709;BME280;35601;55.902;13.606;2023-03-25T10:37:39;98781.73;;;5.95;87.52
49709;BME280;35601;55.902;13.606;2023-03-25T10:40:13;98777.92;;;5.95;87.14
49709;BME280;35601;55.902;13.606;2023-03-25T10:42:32;98779.84;;;5.93;86.69
49709;BME280;35601;55.902;13.606;2023-03-25T10:44:53;98780.50;;;5.95;85.85
49709;BME280;35601;55.902;13.606;2023-03-25T10:47:21;98783.30;;;5.91;85.85
49709;BME280;35601;55.902;13.606;2023-03-25T10:49:45;98779.25;;;5.82;85.38
49709;BME280;35601;55.902;13.606;2023-03-25T10:52:09;98778.51;;;6.19;85.17
49709;BME280;35601;55.902;13.606;2023-03-25T10:54:38;98776.10;;;6.13;84.95
49709;BME280;35601;55.902;13.606;2023-03-25T10:57:02;98770.79;;;5.84;85.61
49709;BME280;35601;55.902;13.606;2023-03-25T10:59:29;98769.72;;;6.30;86.69
49709;BME280;35601;55.902;13.606;2023-03-25T11:01:52;98775.75;;;6.57;85.53
49709;BME280;35601;55.902;13.606;2023-03-25T11:04:19;98773.23;;;6.45;83.46
49709;BME280;35601;55.902;13.606;2023-03-25T11:06:45;98770.56;;;6.77;82.34
49709;BME280;35601;55.902;13.606;2023-03-25T11:09:13;98770.82;;;6.90;82.21
49709;BME280;35601;55.902;13.606;2023-03-25T11:11:34;98770.24;;;7.01;81.17
49709;BME280;35601;55.902;13.606;2023-03-25T11:13:59;98773.10;;;7.24;80.93
49709;BME280;35601;55.902;13.606;2023-03-25T11:16:24;98774.51;;;6.93;81.03
49709;BME280;35601;55.902;13.606;2023-03-25T11:18:50;98771.28;;;7.41;79.90
49709;BME280;35601;55.902;13.606;2023-03-25T11:21:17;98776.08;;;7.45;78.74
49709;BME280;35601;55.902;13.606;2023-03-25T11:23:42;98778.57;;;7.21;78.54
49709;BME280;35601;55.902;13.606;2023-03-25T11:26:07;98779.68;;;7.20;78.70
49709;BME280;35601;55.902;13.606;2023-03-25T11:28:35;98778.99;;;6.98;77.86
49709;BME280;35601;55.902;13.606;2023-03-25T11:31:06;98781.27;;;7.03;78.30
49709;BME280;35601;55.902;13.606;2023-03-25T11:33:25;98780.56;;;7.26;78.51
49709;BME280;35601;55.902;13.606;2023-03-25T11:35:46;98773.68;;;6.68;79.84
49709;BME280;35601;55.902;13.606;2023-03-25T11:38:15;98780.84;;;6.58;81.34
49709;BME280;35601;55.902;13.606;2023-03-25T11:40:37;98775.80;;;6.96;81.12
49709;BME280;35601;55.902;13.606;2023-03-25T11:43:02;98772.84;;;7.61;80.35
49709;BME280;35601;55.902;13.606;2023-03-25T11:45:32;98773.10;;;7.18;79.15
49709;BME280;35601;55.902;13.606;2023-03-25T11:47:57;98774.79;;;7.72;79.31
49709;BME280;35601;55.902;13.606;2023-03-25T11:50:20;98775.33;;;7.47;78.42
49709;BME280;35601;55.902;13.606;2023-03-25T11:52:44;98769.04;;;7.48;78.35
49709;BME280;35601;55.902;13.606;2023-03-25T11:55:15;98764.64;;;7.76;77.66
49709;BME280;35601;55.902;13.606;2023-03-25T11:57:38;98767.30;;;7.46;77.21
49709;BME280;35601;55.902;13.606;2023-03-25T12:00:03;98763.02;;;7.33;77.70
49709;BME280;35601;55.902;13.606;2023-03-25T12:02:28;98762.93;;;7.14;78.01
49709;BME280;35601;55.902;13.606;2023-03-25T12:04:56;98762.66;;;7.03;78.13
49709;BME280;35601;55.902;13.606;2023-03-25T12:07:19;98760.49;;;7.27;77.07
49709;BME280;35601;55.902;13.606;2023-03-25T12:09:52;98758.71;;;6.85;78.08
49709;BME280;35601;55.902;13.606;2023-03-25T12:12:20;98756.49;;;7.27;79.38
49709;BME280;35601;55.902;13.606;2023-03-25T12:14:43;98751.73;;;7.19;78.56
49709;BME280;35601;55.902;13.606;2023-03-25T12:17:02;98752.76;;;7.64;77.86
49709;BME280;35601;55.902;13.606;2023-03-25T12:19:28;98750.42;;;7.65;77.03
49709;BME280;35601;55.902;13.606;2023-03-25T12:22:00;98744.82;;;8.42;77.34
49709;BME280;35601;55.902;13.606;2023-03-25T12:24:24;98749.42;;;8.59;72.04
49709;BME280;35601;55.902;13.606;2023-03-25T12:26:45;98744.78;;;8.61;72.35
49709;BME280;35601;55.902;13.606;2023-03-25T12:29:13;98745.31;;;8.24;73.69
49709;BME280;35601;55.902;13.606;2023-03-25T12:31:41;98749.38;;;8.12;73.07
49709;BME280;35601;55.902;13.606;2023-03-25T12:34:03;98743.21;;;8.53;70.28
49709;BME280;35601;55.902;13.606;2023-03-25T12:36:28;98751.72;;;8.66;71.80
49709;BME280;35601;55.902;13.606;2023-03-25T12:38:54;98745.82;;;8.12;69.74
49709;BME280;35601;55.902;13.606;2023-03-25T12:41:18;98742.23;;;8.31;71.83
49709;BME280;35601;55.902;13.606;2023-03-25T12:43:43;98746.81;;;7.80;72.37
49709;BME280;35601;55.902;13.606;2023-03-25T12:46:08;98750.17;;;8.02;71.97
49709;BME280;35601;55.902;13.606;2023-03-25T12:48:39;98746.91;;;7.81;71.37
49709;BME280;35601;55.902;13.606;2023-03-25T12:50:57;98746.97;;;8.13;71.92
49709;BME280;35601;55.902;13.606;2023-03-25T12:53:27;98745.62;;;7.97;72.21
49709;BME280;35601;55.902;13.606;2023-03-25T12:55:49;98744.24;;;8.16;72.04